Time;durP1;ratioP1;P1;durP2;ratioP2;P2;SDS_P1;SDS_P2;PMS_P1;PMS_P2;Temp;Humidity;BMP_temperature;BMP_pressure;BME280_temperature;BME280_humidity;BME280_pressure;Samples;Min_cycle;Max_cycle;Signal;HPM_P1;HPM_P2
2021/09/08 00:02:26;;;;;;;10.80;7.20;;;;;;;10.93;59.14;100642.50;115278;1202;137165;-63
2021/09/08 00:04:55;;;;;;;16.10;6.80;;;;;;;10.90;59.15;100644.55;115424;1206;22314;-63
2021/09/08 00:07:23;;;;;;;11.00;6.50;;;;;;;10.88;59.54;100646.38;115341;1205;22379;-64
2021/09/08 00:09:51;;;;;;;12.60;7.10;;;;;;;10.84;59.81;100645.63;115242;1205;137373;-64
2021/09/08 00:12:19;;;;;;;14.30;7.20;;;;;;;10.80;60.20;100646.77;115383;1205;22301;-64
2021/09/08 00:14:51;;;;;;;12.60;6.70;;;;;;;10.74;60.78;100646.45;115207;1201;137831;-64
2021/09/08 00:17:19;;;;;;;16.30;7.00;;;;;;;10.66;61.06;100648.42;115443;1206;22357;-64
2021/09/08 00:20:08;;;;;;;10.10;6.70;;;;;;;10.56;61.65;100653.09;115296;1202;137112;-64
2021/09/08 00:22:51;;;;;;;13.00;6.30;;;;;;;10.44;62.13;100652.06;115310;1205;23000;-64
2021/09/08 00:25:19;;;;;;;14.00;6.60;;;;;;;10.36;62.45;100649.34;115383;1213;24314;-64
2021/09/08 00:27:47;;;;;;;17.50;7.40;;;;;;;10.29;62.76;100649.11;115273;1201;138108;-65
2021/09/08 00:30:15;;;;;;;15.30;6.30;;;;;;;10.23;62.87;100646.55;115312;1206;22204;-64
2021/09/08 00:32:43;;;;;;;10.10;6.50;;;;;;;10.16;63.06;100643.58;115237;1202;137663;-64
2021/09/08 00:35:12;;;;;;;16.80;7.50;;;;;;;10.16;62.98;100652.35;115333;1206;22311;-64
2021/09/08 00:37:41;;;;;;;12.80;6.80;;;;;;;10.13;63.11;100650.86;115346;1205;22334;-64
2021/09/08 00:40:11;;;;;;;12.60;7.00;;;;;;;10.11;63.18;100653.73;115286;1202;137231;-64
2021/09/08 00:42:42;;;;;;;10.00;6.00;;;;;;;10.10;63.15;100651.03;115357;1207;22363;-64
2021/09/08 00:45:10;;;;;;;12.60;7.60;;;;;;;10.12;62.65;100651.85;115289;1202;137445;-64
2021/09/08 00:47:41;;;;;;;12.90;6.60;;;;;;;10.13;62.65;100649.61;115382;1205;22249;-64
2021/09/08 00:50:09;;;;;;;11.70;7.60;;;;;;;10.15;62.78;100648.95;115264;1202;137904;-64
2021/09/08 00:52:38;;;;;;;10.50;6.30;;;;;;;10.17;62.49;100648.53;115407;1205;24659;-64
2021/09/08 00:55:10;;;;;;;10.80;6.30;;;;;;;10.19;62.21;100650.21;115332;1206;22328;-64
2021/09/08 00:57:38;;;;;;;13.40;7.10;;;;;;;10.21;62.27;100650.10;115211;1202;138202;-64
2021/09/08 01:00:12;;;;;;;10.80;6.40;;;;;;;10.21;62.37;100646.09;115394;1205;22291;-64
2021/09/08 01:02:41;;;;;;;15.20;6.00;;;;;;;10.22;62.37;100653.02;115222;1203;137012;-64
2021/09/08 01:05:10;;;;;;;9.90;5.70;;;;;;;10.23;62.25;100651.69;115440;1205;22314;-64
2021/09/08 01:07:39;;;;;;;9.80;6.00;;;;;;;10.23;62.13;100655.29;115361;1213;23047;-64
2021/09/08 01:10:09;;;;;;;11.60;6.90;;;;;;;10.24;62.31;100654.95;115278;1202;137449;-64
2021/09/08 01:12:48;;;;;;;11.20;5.90;;;;;;;10.24;62.16;100655.73;115451;1205;22307;-64
2021/09/08 01:15:17;;;;;;;11.30;6.30;;;;;;;10.22;62.12;100653.20;115247;1202;137435;-64
2021/09/08 01:18:05;;;;;;;11.90;6.60;;;;;;;10.20;62.31;100649.20;115390;1206;23345;-64
2021/09/08 01:20:33;;;;;;;10.40;6.40;;;;;;;10.19;62.63;100646.10;115264;1206;137635;-64
2021/09/08 01:23:01;;;;;;;13.20;6.10;;;;;;;10.15;63.06;100642.09;115411;1205;22286;-64
2021/09/08 01:25:29;;;;;;;11.70;5.90;;;;;;;10.10;63.31;100642.31;115394;1208;23212;-64
2021/09/08 01:27:58;;;;;;;13.70;6.80;;;;;;;10.05;63.60;100637.52;115197;1201;138745;-64
2021/09/08 01:30:26;;;;;;;12.90;5.70;;;;;;;9.99;63.83;100641.44;115355;1205;22271;-64
2021/09/08 01:32:55;;;;;;;10.00;5.30;;;;;;;9.95;63.92;100640.23;115296;1201;137694;-64
2021/09/08 01:35:23;;;;;;;8.00;4.80;;;;;;;9.92;63.93;100637.46;115375;1205;22842;-64
2021/09/08 01:37:51;;;;;;;13.80;5.60;;;;;;;9.90;63.89;100638.74;115427;1206;22380;-64
2021/09/08 01:40:20;;;;;;;10.80;5.70;;;;;;;9.89;63.74;100633.27;115290;1202;136757;-64
2021/09/08 01:42:48;;;;;;;12.50;5.70;;;;;;;9.90;63.57;100632.26;115343;1205;22331;-64
2021/09/08 01:45:16;;;;;;;9.50;5.40;;;;;;;9.92;62.99;100631.83;115252;1202;138089;-59
2021/09/08 01:47:45;;;;;;;9.70;6.50;;;;;;;9.94;62.75;100631.62;115415;1207;22221;-59
2021/09/08 01:50:13;;;;;;;10.60;6.10;;;;;;;9.98;62.20;100627.50;115256;1202;139094;-59
2021/09/08 01:52:41;;;;;;;12.40;6.00;;;;;;;10.02;61.90;100625.88;115371;1205;23042;-59
2021/09/08 01:55:12;;;;;;;9.40;5.70;;;;;;;10.06;61.78;100627.45;115335;1206;22329;-59
2021/09/08 01:57:40;;;;;;;10.00;6.00;;;;;;;10.09;61.46;100627.71;115261;1201;137091;-59
2021/09/08 02:00:09;;;;;;;10.20;6.30;;;;;;;10.13;61.41;100627.33;115423;1205;23163;-59
2021/09/08 02:02:40;;;;;;;10.20;6.40;;;;;;;10.17;61.01;100628.76;115259;1201;137425;-59
2021/09/08 02:05:09;;;;;;;15.60;6.50;;;;;;;10.21;60.95;100628.45;115413;1205;22314;-59
2021/09/08 02:07:40;;;;;;;11.30;6.00;;;;;;;10.23;60.79;100629.79;115343;1205;22335;-59
2021/09/08 02:10:09;;;;;;;13.50;6.40;;;;;;;10.26;60.65;100630.83;115254;1202;137182;-59
2021/09/08 02:12:58;;;;;;;10.70;7.00;;;;;;;10.29;60.44;100632.11;115409;1205;22280;-59
2021/09/08 02:15:46;;;;;;;;;;;;;;;10.30;60.70;100632.80;114185;1201;138609;-59
2021/09/08 02:18:14;;;;;;;13.10;6.30;;;;;;;10.29;60.45;100633.11;111318;1206;26458;-59
2021/09/08 02:20:43;;;;;;;14.30;6.80;;;;;;;10.28;60.56;100632.48;115140;1202;137368;-59
2021/09/08 02:23:12;;;;;;;15.40;6.80;;;;;;;10.28;60.64;100632.40;115349;1206;22857;-59
2021/09/08 02:25:40;;;;;;;12.80;6.40;;;;;;;10.25;60.42;100631.48;115414;1213;22345;-59
2021/09/08 02:28:08;;;;;;;16.70;7.60;;;;;;;10.25;60.61;100634.40;115255;1204;137240;-59
2021/09/08 02:30:36;;;;;;;18.60;8.50;;;;;;;10.24;60.64;100633.02;115374;1207;23576;-59
2021/09/08 02:33:05;;;;;;;15.40;6.50;;;;;;;10.23;60.86;100632.61;115308;1201;137963;-59
2021/09/08 02:35:33;;;;;;;17.40;6.70;;;;;;;10.21;60.97;100629.23;115368;1207;22358;-59
2021/09/08 02:38:01;;;;;;;13.90;7.30;;;;;;;10.21;61.13;100632.67;115260;1202;137061;-59
2021/09/08 02:40:29;;;;;;;14.00;6.50;;;;;;;10.19;61.11;100635.80;115439;1205;22173;-59
2021/09/08 02:42:59;;;;;;;13.70;7.20;;;;;;;10.16;61.16;100639.69;115395;1205;22406;-59
2021/09/08 02:45:27;;;;;;;23.00;7.70;;;;;;;10.14;60.85;100639.83;115329;1202;137624;-59
2021/09/08 02:47:55;;;;;;;19.10;6.60;;;;;;;10.11;61.23;100635.10;115340;1206;22228;-59
2021/09/08 02:50:23;;;;;;;13.90;7.20;;;;;;;10.07;61.37;100635.66;115293;1203;137635;-59
2021/09/08 02:52:51;;;;;;;15.40;5.90;;;;;;;10.04;61.45;100636.20;115416;1205;23276;-59
2021/09/08 02:55:23;;;;;;;14.50;6.20;;;;;;;10.00;61.44;100636.98;115414;1206;22993;-59
2021/09/08 02:57:51;;;;;;;14.50;6.40;;;;;;;9.97;61.58;100637.45;115288;1202;137519;-59
2021/09/08 03:00:19;;;;;;;12.80;6.30;;;;;;;9.93;61.99;100632.47;115403;1207;23136;-59
2021/09/08 03:02:49;;;;;;;16.60;6.80;;;;;;;9.89;62.40;100632.55;115290;1203;137765;-59
2021/09/08 03:05:18;;;;;;;11.20;6.30;;;;;;;9.85;62.32;100631.33;115420;1207;22298;-59
2021/09/08 03:07:46;;;;;;;11.30;6.30;;;;;;;9.82;62.55;100628.95;115361;1206;22276;-59
2021/09/08 03:10:18;;;;;;;12.90;6.40;;;;;;;9.79;62.77;100630.58;115252;1202;137672;-59
2021/09/08 03:12:53;;;;;;;13.50;6.00;;;;;;;9.78;63.03;100632.73;115384;1206;22235;-59
2021/09/08 03:15:21;;;;;;;12.20;6.70;;;;;;;9.76;62.89;100631.40;115236;1202;137826;-59
2021/09/08 03:17:49;;;;;;;10.10;5.70;;;;;;;9.71;63.29;100626.34;115378;1207;23393;-59
2021/09/08 03:20:17;;;;;;;13.40;6.10;;;;;;;9.67;63.78;100630.73;115303;1201;137514;-59
2021/09/08 03:22:44;;;;;;;9.90;6.00;;;;;;;9.61;63.94;100630.96;115405;1206;22346;-59
2021/09/08 03:25:13;;;;;;;13.20;7.10;;;;;;;9.54;64.48;100629.61;115360;1206;25164;-59
2021/09/08 03:27:41;;;;;;;9.50;5.80;;;;;;;9.48;64.73;100629.92;111278;1204;138108;-59
2021/09/08 03:30:12;;;;;;;14.30;6.60;;;;;;;9.42;64.94;100629.13;111336;1206;24071;-59
2021/09/08 03:32:40;;;;;;;11.40;6.90;;;;;;;9.34;65.28;100624.73;111251;1203;137308;-59
2021/09/08 03:35:08;;;;;;;10.20;6.20;;;;;;;9.28;65.71;100633.27;111241;1206;23737;-59
2021/09/08 03:37:37;;;;;;;15.50;6.90;;;;;;;9.21;66.11;100628.29;111341;1206;26418;-58
2021/09/08 03:40:05;;;;;;;19.10;5.60;;;;;;;9.17;66.43;100632.83;111173;1202;138940;-59
2021/09/08 03:42:35;;;;;;;15.70;7.40;;;;;;;9.15;66.59;100633.30;111315;1207;24791;-59
2021/09/08 03:45:04;;;;;;;15.70;7.20;;;;;;;9.15;66.68;100632.54;111237;1203;137849;-59
2021/09/08 03:47:35;;;;;;;16.10;6.40;;;;;;;9.17;67.04;100631.36;115346;1205;23295;-59
2021/09/08 03:50:04;;;;;;;15.70;6.10;;;;;;;9.20;67.35;100630.64;115310;1202;139464;-59
2021/09/08 03:52:32;;;;;;;14.20;6.00;;;;;;;9.22;67.60;100633.88;115441;1205;23244;-59
2021/09/08 03:55:00;;;;;;;16.20;6.70;;;;;;;9.24;67.87;100633.55;115409;1205;22259;-59
2021/09/08 03:57:30;;;;;;;24.80;7.90;;;;;;;9.27;67.98;100631.61;115355;1202;137892;-59
2021/09/08 03:59:58;;;;;;;14.80;6.30;;;;;;;9.29;67.75;100632.55;115367;1213;22312;-59
2021/09/08 04:02:26;;;;;;;24.20;7.20;;;;;;;9.33;67.61;100635.09;115323;1202;138375;-59
2021/09/08 04:04:58;;;;;;;22.60;7.80;;;;;;;9.37;67.36;100635.59;115397;1206;22262;-59
2021/09/08 04:07:26;;;;;;;17.90;6.80;;;;;;;9.40;67.45;100635.67;115337;1205;22320;-59
2021/09/08 04:09:55;;;;;;;17.60;8.00;;;;;;;9.42;67.76;100642.06;115246;1203;137075;-59
2021/09/08 04:12:23;;;;;;;17.30;7.10;;;;;;;9.44;67.58;100643.43;115459;1209;23034;-59
2021/09/08 04:14:54;;;;;;;20.40;7.60;;;;;;;9.46;67.42;100637.64;115313;1204;137176;-59
2021/09/08 04:17:23;;;;;;;24.30;7.20;;;;;;;9.50;67.66;100636.35;115470;1213;22349;-59
2021/09/08 04:19:51;;;;;;;25.90;6.70;;;;;;;9.53;67.80;100636.50;115395;1205;22332;-59
2021/09/08 04:22:19;;;;;;;29.80;7.80;;;;;;;9.58;67.62;100638.19;115235;1202;138472;-59
2021/09/08 04:24:47;;;;;;;15.00;7.50;;;;;;;9.63;67.62;100633.76;115432;1205;22108;-59
2021/09/08 04:27:16;;;;;;;33.40;10.20;;;;;;;9.70;67.38;100632.12;115259;1203;139339;-59
2021/09/08 04:29:44;;;;;;;44.00;8.40;;;;;;;9.77;67.15;100630.17;115504;1211;23112;-59
2021/09/08 04:32:12;;;;;;;28.20;8.40;;;;;;;9.87;66.77;100622.81;115285;1202;139670;-59
2021/09/08 04:34:40;;;;;;;17.70;7.30;;;;;;;10.05;66.38;100623.37;115404;1206;22305;-59
2021/09/08 04:37:12;;;;;;;18.50;6.70;;;;;;;10.23;65.78;100624.55;115433;1210;23101;-59
2021/09/08 04:39:41;;;;;;;23.90;7.40;;;;;;;10.40;65.47;100626.31;115317;1201;138629;-59
2021/09/08 04:42:09;;;;;;;20.80;7.40;;;;;;;10.53;64.89;100627.51;115468;1206;22467;-59
2021/09/08 04:44:37;;;;;;;29.40;7.90;;;;;;;10.66;64.71;100624.05;115297;1202;137979;-59
2021/09/08 04:47:05;;;;;;;24.90;7.90;;;;;;;10.80;64.78;100623.34;115427;1207;22280;-59
2021/09/08 04:49:33;;;;;;;18.80;7.80;;;;;;;10.92;64.60;100627.52;115479;1206;22226;-59
2021/09/08 04:52:03;;;;;;;26.50;8.00;;;;;;;11.02;64.14;100623.30;115294;1203;137407;-59
2021/09/08 04:54:31;;;;;;;16.10;7.50;;;;;;;11.11;63.58;100622.66;115432;1213;22358;-59
2021/09/08 04:56:59;;;;;;;30.70;8.80;;;;;;;11.19;63.18;100623.30;115341;1202;137385;-59
2021/09/08 04:59:27;;;;;;;35.90;9.70;;;;;;;11.28;62.94;100624.98;115378;1207;22368;-59
2021/09/08 05:01:55;;;;;;;29.10;9.70;;;;;;;11.36;62.65;100623.34;115384;1206;22272;-59
2021/09/08 05:04:23;;;;;;;18.20;8.60;;;;;;;11.44;62.47;100622.14;115257;1202;138012;-59
2021/09/08 05:06:51;;;;;;;27.60;8.90;;;;;;;11.52;62.31;100623.23;115401;1207;22189;-60
2021/09/08 05:09:19;;;;;;;24.80;6.90;;;;;;;11.63;62.02;100624.91;115301;1202;138693;-59
2021/09/08 05:11:47;;;;;;;20.50;6.50;;;;;;;11.77;61.66;100624.30;115362;1211;26173;-59
2021/09/08 05:14:18;;;;;;;25.10;8.50;;;;;;;11.90;61.37;100621.48;115326;1202;138441;-59
2021/09/08 05:16:52;;;;;;;20.70;7.40;;;;;;;12.06;61.01;100619.70;115395;1206;22336;-59
2021/09/08 05:19:21;;;;;;;18.70;7.50;;;;;;;12.26;60.80;100619.08;115395;1207;22145;-60
2021/09/08 05:21:49;;;;;;;18.10;7.20;;;;;;;12.49;60.39;100614.64;115260;1197;137937;-59
2021/09/08 05:24:19;;;;;;;14.50;6.90;;;;;;;12.73;60.01;100605.13;115350;1207;22379;-59
2021/09/08 05:26:58;;;;;;;27.40;7.40;;;;;;;12.95;59.13;100603.59;115318;1202;137483;-60
2021/09/08 05:29:26;;;;;;;19.90;6.50;;;;;;;13.10;58.32;100604.75;115399;1208;22325;-60
2021/09/08 05:31:54;;;;;;;13.60;6.60;;;;;;;13.20;57.87;100600.88;115391;1206;22980;-60
2021/09/08 05:34:22;;;;;;;24.30;7.80;;;;;;;13.26;57.62;100600.15;115297;1202;137606;-63
2021/09/08 05:36:51;;;;;;;15.60;7.00;;;;;;;13.29;57.52;100600.04;115399;1206;22306;-59
2021/09/08 05:39:20;;;;;;;16.30;7.10;;;;;;;13.33;57.50;100604.38;115274;1202;138515;-61
2021/09/08 05:41:48;;;;;;;10.70;5.50;;;;;;;13.39;57.33;100602.34;115282;1207;22372;-59
2021/09/08 05:44:16;;;;;;;27.10;7.60;;;;;;;13.45;57.15;100601.05;115328;1203;137756;-61
2021/09/08 05:46:45;;;;;;;13.10;6.20;;;;;;;13.50;56.95;100597.02;115385;1207;22234;-61
2021/09/08 05:49:14;;;;;;;14.80;6.40;;;;;;;13.59;57.24;100598.09;115423;1207;22326;-61
2021/09/08 05:51:42;;;;;;;13.90;5.10;;;;;;;13.66;57.38;100604.02;115223;1202;138307;-60
2021/09/08 05:54:11;;;;;;;16.30;6.00;;;;;;;13.74;57.33;100604.13;115411;1201;22338;-60
2021/09/08 05:56:39;;;;;;;16.00;6.00;;;;;;;13.81;57.20;100600.33;115251;1202;138553;-62
2021/09/08 05:59:07;;;;;;;12.10;6.30;;;;;;;13.87;57.19;100597.61;115302;1207;22531;-61
2021/09/08 06:01:35;;;;;;;36.30;8.30;;;;;;;13.95;57.26;100594.16;115412;1210;22295;-61
2021/09/08 06:04:04;;;;;;;19.00;5.90;;;;;;;14.01;57.17;100602.56;115155;1205;137417;-61
2021/09/08 06:06:32;;;;;;;14.30;6.40;;;;;;;14.07;57.08;100599.52;115441;1207;22288;-60
2021/09/08 06:09:00;;;;;;;12.50;6.50;;;;;;;14.15;57.19;100604.11;115323;1201;138638;-61
2021/09/08 06:11:48;;;;;;;12.30;5.90;;;;;;;14.25;56.98;100604.46;115433;1206;22339;-61
2021/09/08 06:14:17;;;;;;;9.10;5.10;;;;;;;14.34;57.22;100602.33;115248;1207;138506;-61
2021/09/08 06:16:58;;;;;;;16.40;5.40;;;;;;;14.47;56.89;100604.70;115392;1207;23030;-63
2021/09/08 06:19:26;;;;;;;14.70;7.20;;;;;;;14.60;56.48;100602.14;115430;1207;23230;-61
2021/09/08 06:21:54;;;;;;;20.90;6.10;;;;;;;14.69;55.96;100601.98;115277;1202;137466;-61
2021/09/08 06:24:23;;;;;;;9.20;5.10;;;;;;;14.77;56.16;100598.88;115365;1207;23454;-60
2021/09/08 06:26:51;;;;;;;10.30;5.70;;;;;;;14.87;56.47;100598.15;115340;1201;137716;-61
2021/09/08 06:29:19;;;;;;;19.50;5.90;;;;;;;14.97;56.10;100596.38;115384;1207;22325;-61
2021/09/08 06:31:47;;;;;;;15.20;5.10;;;;;;;15.07;55.95;100590.26;115393;1206;22321;-61
2021/09/08 06:34:16;;;;;;;11.30;5.80;;;;;;;15.15;55.94;100587.09;115359;1205;137220;-61
2021/09/08 06:36:44;;;;;;;13.40;5.50;;;;;;;15.24;56.04;100582.33;112767;1208;25069;-60
2021/09/08 06:39:12;;;;;;;12.30;5.30;;;;;;;15.31;56.14;100578.86;115198;1202;138806;-61
2021/09/08 06:41:40;;;;;;;26.00;5.90;;;;;;;15.39;56.21;100580.20;115357;1207;23166;-61
2021/09/08 06:44:08;;;;;;;22.00;6.50;;;;;;;15.46;55.38;100577.26;115277;1202;137723;-61
2021/09/08 06:46:36;;;;;;;9.90;5.40;;;;;;;15.51;55.41;100580.11;115423;1207;22156;-61
2021/09/08 06:49:05;;;;;;;19.50;6.00;;;;;;;15.57;55.25;100579.57;115383;1207;22327;-61
2021/09/08 06:51:33;;;;;;;12.60;5.40;;;;;;;15.62;55.54;100581.40;115299;1204;137830;-61
2021/09/08 06:54:01;;;;;;;11.70;4.80;;;;;;;15.68;55.77;100580.14;115472;1207;23217;-61
2021/09/08 06:56:29;;;;;;;9.80;4.10;;;;;;;15.77;55.88;100580.06;115308;1201;138782;-62
2021/09/08 06:58:57;;;;;;;17.50;5.00;;;;;;;15.84;55.23;100577.80;115492;1207;22925;-63
2021/09/08 07:01:25;;;;;;;14.30;5.10;;;;;;;15.92;55.22;100573.71;115436;1207;22350;-62
2021/09/08 07:03:54;;;;;;;9.40;5.50;;;;;;;15.99;55.14;100575.46;115333;1201;138571;-62
2021/09/08 07:06:23;;;;;;;11.00;5.10;;;;;;;16.06;55.05;100570.92;115452;1207;22304;-63
2021/09/08 07:08:51;;;;;;;14.00;5.10;;;;;;;16.14;55.37;100575.52;115284;1203;138508;-63
2021/09/08 07:11:19;;;;;;;9.30;4.70;;;;;;;16.23;55.98;100574.40;115475;1206;22370;-62
2021/09/08 07:13:48;;;;;;;9.40;4.30;;;;;;;16.33;56.12;100574.86;115397;1207;22269;-62
2021/09/08 07:16:16;;;;;;;10.20;4.40;;;;;;;16.42;56.01;100580.18;115281;1202;138240;-61
2021/09/08 07:18:44;;;;;;;9.10;4.50;;;;;;;16.51;55.59;100583.06;115500;1207;22311;-61
2021/09/08 07:21:13;;;;;;;15.50;4.70;;;;;;;16.61;55.07;100586.91;115292;1212;137107;-61
2021/09/08 07:23:41;;;;;;;5.20;3.80;;;;;;;16.69;54.64;100585.79;115438;1207;22177;-61
2021/09/08 07:26:13;;;;;;;9.60;4.30;;;;;;;16.76;54.38;100588.98;115311;1204;139362;-61
2021/09/08 07:28:41;;;;;;;17.00;4.70;;;;;;;16.82;54.23;100587.67;115418;1207;22287;-61
2021/09/08 07:31:09;;;;;;;9.60;4.50;;;;;;;16.89;53.98;100585.70;115440;1206;22304;-61
2021/09/08 07:33:38;;;;;;;11.90;4.20;;;;;;;16.96;54.42;100582.52;115226;1202;137101;-61
2021/09/08 07:36:07;;;;;;;10.10;4.50;;;;;;;17.05;53.99;100581.14;115414;1207;22430;-61
2021/09/08 07:38:50;;;;;;;20.00;5.50;;;;;;;17.12;53.76;100581.31;115376;1201;137337;-61
2021/09/08 07:41:19;;;;;;;13.70;4.30;;;;;;;17.20;53.21;100578.27;115451;1208;22285;-60
2021/09/08 07:43:56;;;;;;;8.90;4.50;;;;;;;17.26;53.45;100580.64;115461;1213;22377;-59
2021/09/08 07:46:24;;;;;;;17.40;5.00;;;;;;;17.31;53.22;100579.48;115322;1201;137607;-61
2021/09/08 07:48:54;;;;;;;9.50;4.20;;;;;;;17.37;53.32;100574.29;115351;1213;22433;-63
2021/09/08 07:51:22;;;;;;;11.60;4.50;;;;;;;17.43;53.54;100575.67;115306;1204;136948;-65
2021/09/08 07:53:51;;;;;;;13.10;4.50;;;;;;;17.47;53.35;100574.12;115368;1208;22273;-63
2021/09/08 07:56:19;;;;;;;14.90;4.50;;;;;;;17.54;53.35;100575.82;115203;1202;139277;-63
2021/09/08 07:58:47;;;;;;;13.40;4.60;;;;;;;17.58;53.50;100571.46;115441;1207;22307;-63
2021/09/08 08:01:15;;;;;;;8.30;4.70;;;;;;;17.62;53.02;100567.42;115397;1208;22408;-62
2021/09/08 08:03:45;;;;;;;6.90;4.60;;;;;;;17.69;52.85;100570.70;115363;1201;137220;-63
2021/09/08 08:06:13;;;;;;;9.00;5.40;;;;;;;17.75;52.94;100565.05;115384;1206;23584;-62
2021/09/08 08:08:41;;;;;;;11.30;5.00;;;;;;;17.81;53.44;100562.71;115268;1202;137716;-63
2021/09/08 08:11:09;;;;;;;6.70;4.20;;;;;;;17.88;52.88;100561.65;115338;1207;22312;-63
2021/09/08 08:13:40;;;;;;;10.60;4.50;;;;;;;17.95;52.61;100558.48;115341;1207;22351;-63
2021/09/08 08:16:28;;;;;;;9.80;4.30;;;;;;;18.03;52.81;100555.91;113084;1204;137241;-62
2021/09/08 08:18:57;;;;;;;11.90;5.60;;;;;;;18.09;52.66;100554.63;111342;1206;22414;-62
2021/09/08 08:21:25;;;;;;;9.00;4.20;;;;;;;18.16;52.36;100558.57;115234;1208;137366;-63
2021/09/08 08:23:53;;;;;;;9.50;4.50;;;;;;;18.21;51.92;100557.86;115454;1208;22485;-63
2021/09/08 08:26:22;;;;;;;9.80;4.40;;;;;;;18.26;51.36;100556.09;115329;1202;137376;-63
2021/09/08 08:28:53;;;;;;;7.50;4.40;;;;;;;18.29;51.94;100559.71;115485;1207;22283;-62
2021/09/08 08:31:21;;;;;;;14.00;4.10;;;;;;;18.34;51.95;100561.55;115437;1205;23143;-65
2021/09/08 08:33:49;;;;;;;8.10;4.80;;;;;;;18.39;52.05;100562.58;115301;1202;138761;-64
2021/09/08 08:36:17;;;;;;;5.90;3.70;;;;;;;18.46;51.31;100566.13;115383;1208;22407;-61
2021/09/08 08:38:46;;;;;;;18.70;5.30;;;;;;;18.52;51.33;100562.16;115372;1202;137598;-62
2021/09/08 08:41:14;;;;;;;6.50;3.70;;;;;;;18.58;51.01;100564.20;115446;1209;22281;-63
2021/09/08 08:43:42;;;;;;;7.00;3.40;;;;;;;18.65;50.74;100561.56;115364;1213;22315;-62
2021/09/08 08:46:10;;;;;;;11.60;4.00;;;;;;;18.73;50.72;100549.92;115272;1205;137280;-62
2021/09/08 08:48:38;;;;;;;11.70;4.70;;;;;;;18.79;50.65;100554.90;115333;1213;23443;-63
2021/09/08 08:51:06;;;;;;;12.20;4.20;;;;;;;18.87;50.88;100553.31;115186;1205;139191;-63
2021/09/08 08:53:34;;;;;;;17.80;7.90;;;;;;;18.94;50.68;100550.86;115345;1207;22391;-62
2021/09/08 08:56:02;;;;;;;19.70;9.10;;;;;;;19.00;50.62;100550.60;115455;1207;22378;-63
2021/09/08 08:58:30;;;;;;;12.00;5.60;;;;;;;19.08;50.13;100549.32;115285;1205;138676;-62
2021/09/08 09:01:18;;;;;;;9.10;4.60;;;;;;;19.17;49.47;100551.34;115433;1208;22513;-65
2021/09/08 09:03:59;;;;;;;11.00;4.60;;;;;;;19.25;49.13;100540.70;115292;1204;137472;-66
2021/09/08 09:06:28;;;;;;;9.00;3.70;;;;;;;19.32;49.20;100541.81;115390;1208;22319;-66
2021/09/08 09:09:05;;;;;;;9.70;4.40;;;;;;;19.39;48.57;100541.13;115317;1205;137264;-66
2021/09/08 09:11:43;;;;;;;12.30;4.30;;;;;;;19.47;48.30;100540.95;115448;1208;23099;-66
2021/09/08 09:14:12;;;;;;;7.30;4.20;;;;;;;19.52;47.81;100534.95;115280;1202;139359;-66
2021/09/08 09:16:41;;;;;;;7.30;3.80;;;;;;;19.56;47.85;100533.96;115436;1213;22317;-65
2021/09/08 09:19:10;;;;;;;12.10;4.30;;;;;;;19.60;47.68;100529.95;115379;1205;22765;-64
2021/09/08 09:21:38;;;;;;;9.00;3.70;;;;;;;19.63;47.19;100528.23;115277;1201;137326;-64
2021/09/08 09:24:07;;;;;;;9.00;3.80;;;;;;;19.66;46.68;100523.02;115384;1206;22305;-65
2021/09/08 09:26:37;;;;;;;10.50;4.00;;;;;;;19.69;46.54;100516.35;115253;1201;137376;-65
2021/09/08 09:29:18;;;;;;;6.30;3.30;;;;;;;19.72;46.84;100518.20;115380;1206;22265;-65
2021/09/08 09:31:54;;;;;;;13.80;4.60;;;;;;;19.76;46.64;100515.14;115342;1208;22338;-62
2021/09/08 09:34:24;;;;;;;8.10;3.80;;;;;;;19.81;47.21;100513.27;115313;1201;139993;-62
2021/09/08 09:36:53;;;;;;;9.00;4.00;;;;;;;19.86;46.85;100513.11;115483;1208;22342;-62
2021/09/08 09:39:21;;;;;;;8.10;3.10;;;;;;;19.87;46.84;100509.17;115307;1203;137127;-62
2021/09/08 09:41:49;;;;;;;10.90;4.20;;;;;;;19.92;46.59;100508.54;115409;1206;22287;-62
2021/09/08 09:44:18;;;;;;;9.40;3.60;;;;;;;19.96;47.19;100510.14;115252;1201;138617;-62
2021/09/08 09:46:46;;;;;;;11.40;3.80;;;;;;;19.98;46.91;100514.61;115399;1206;23111;-62
2021/09/08 09:49:15;;;;;;;6.40;3.50;;;;;;;20.01;46.61;100504.61;115408;1209;23283;-61
2021/09/08 09:51:43;;;;;;;11.60;4.10;;;;;;;20.04;46.37;100502.87;115285;1202;137401;-61
2021/09/08 09:54:11;;;;;;;10.80;4.10;;;;;;;20.07;46.40;100499.31;115460;1207;22313;-62
2021/09/08 09:56:43;;;;;;;11.60;3.90;;;;;;;20.09;46.33;100491.60;115276;1202;137888;-62
2021/09/08 09:59:11;;;;;;;12.20;4.00;;;;;;;20.16;46.34;100492.63;115367;1208;22389;-62
2021/09/08 10:01:39;;;;;;;9.90;4.10;;;;;;;20.20;46.40;100488.95;115448;1206;23063;-62
2021/09/08 10:04:09;;;;;;;4.40;3.30;;;;;;;20.24;46.00;100487.13;115217;1205;138389;-62
2021/09/08 10:06:40;;;;;;;6.90;3.70;;;;;;;20.27;45.64;100485.94;115448;1211;22265;-61
2021/09/08 10:09:12;;;;;;;5.20;3.50;;;;;;;20.31;45.60;100487.73;115262;1205;137917;-61
2021/09/08 10:11:46;;;;;;;7.70;3.60;;;;;;;20.33;45.63;100479.61;115472;1208;22274;-60
2021/09/08 10:14:15;;;;;;;5.80;3.30;;;;;;;20.35;45.64;100471.64;115184;1201;138098;-63
2021/09/08 10:16:47;;;;;;;19.40;4.20;;;;;;;20.37;46.10;100468.09;115351;1208;23053;-62
2021/09/08 10:19:28;;;;;;;9.20;3.40;;;;;;;20.41;45.94;100466.59;115386;1208;22357;-62
2021/09/08 10:22:06;;;;;;;11.30;4.30;;;;;;;20.45;45.54;100464.61;115319;1202;137524;-65
2021/09/08 10:24:34;;;;;;;14.50;4.20;;;;;;;20.48;45.72;100459.65;115353;1208;22988;-64
2021/09/08 10:27:23;;;;;;;10.90;3.80;;;;;;;20.49;45.59;100460.60;115163;1202;138797;-62
2021/09/08 10:29:54;;;;;;;10.60;4.70;;;;;;;20.52;45.72;100459.07;115278;1213;22344;-61
2021/09/08 10:32:22;;;;;;;6.10;3.60;;;;;;;20.53;46.06;100463.91;115236;1201;138350;-62
2021/09/08 10:34:51;;;;;;;25.30;5.80;;;;;;;20.55;45.56;100454.41;115271;1213;22302;-62
2021/09/08 10:37:19;;;;;;;8.90;4.40;;;;;;;20.57;45.29;100451.45;115403;1207;22121;-63
2021/09/08 10:39:47;;;;;;;10.80;4.20;;;;;;;20.58;45.68;100450.05;115262;1203;137477;-61
2021/09/08 10:42:16;;;;;;;25.90;5.60;;;;;;;20.58;45.55;100448.34;115423;1208;22260;-62
2021/09/08 10:45:03;;;;;;;13.70;4.50;;;;;;;20.58;45.04;100454.33;115257;1206;137336;-62
2021/09/08 10:47:35;;;;;;;14.10;4.30;;;;;;;20.56;45.22;100453.96;115365;1208;22320;-62
2021/09/08 10:50:05;;;;;;;10.20;4.50;;;;;;;20.53;45.18;100456.83;115489;1208;22348;-62
2021/09/08 10:52:36;;;;;;;9.70;4.80;;;;;;;20.52;44.76;100454.62;115161;1205;137697;-62
2021/09/08 10:55:09;;;;;;;7.70;4.10;;;;;;;20.51;44.70;100455.02;115407;1208;22448;-62
2021/09/08 10:57:38;;;;;;;9.20;4.10;;;;;;;20.53;45.06;100450.85;115309;1202;137701;-61
2021/09/08 11:00:11;;;;;;;9.10;4.70;;;;;;;20.55;44.89;100451.05;115423;1207;22296;-62
2021/09/08 11:02:43;;;;;;;7.90;4.50;;;;;;;20.55;44.65;100445.61;115282;1201;138443;-63
2021/09/08 11:05:12;;;;;;;13.60;4.30;;;;;;;20.53;44.63;100443.55;115329;1206;22324;-63
2021/09/08 11:09:55;;;;;;;6.20;4.60;;;;;;;20.50;45.69;100441.77;109837;1217;546479;-62
2021/09/08 11:12:46;;;;;;;18.00;10.00;;;;;;;20.52;45.86;100448.42;115095;1208;23412;-63
2021/09/08 11:15:14;;;;;;;49.60;27.90;;;;;;;20.57;45.07;100446.38;115098;1205;137601;-63
2021/09/08 11:17:54;;;;;;;21.60;9.20;;;;;;;20.62;45.53;100443.13;115230;1207;22330;-63
2021/09/08 11:20:43;;;;;;;7.90;4.90;;;;;;;20.68;45.27;100447.17;115102;1205;137757;-62
2021/09/08 11:23:14;;;;;;;28.60;16.70;;;;;;;20.73;45.12;100445.93;115261;1207;22318;-63
2021/09/08 11:25:43;;;;;;;12.30;6.80;;;;;;;20.77;44.88;100442.05;115270;1207;22333;-63